sensor_id;sensor_type;location;lat;lon;timestamp;temperature;humidity
38183;DHT22;23991;52.430;10.586;2023-04-25T00:00:26;9.80;70.50
38183;DHT22;23991;52.430;10.586;2023-04-25T00:02:51;9.80;70.40
38183;DHT22;23991;52.430;10.586;2023-04-25T00:05:17;9.80;70.10
38183;DHT22;23991;52.430;10.586;2023-04-25T00:07:43;9.80;70.40
38183;DHT22;23991;52.430;10.586;2023-04-25T00:10:09;9.80;70.80
38183;DHT22;23991;52.430;10.586;2023-04-25T00:12:36;9.90;70.70
38183;DHT22;23991;52.430;10.586;2023-04-25T00:15:02;9.80;70.50
38183;DHT22;23991;52.430;10.586;2023-04-25T00:17:28;9.80;70.70
38183;DHT22;23991;52.430;10.586;2023-04-25T00:19:54;9.80;70.40
38183;DHT22;23991;52.430;10.586;2023-04-25T00:22:21;9.80;70.50
38183;DHT22;23991;52.430;10.586;2023-04-25T00:24:46;9.80;70.60
38183;DHT22;23991;52.430;10.586;2023-04-25T00:27:12;9.80;70.80
38183;DHT22;23991;52.430;10.586;2023-04-25T00:29:37;9.80;70.70
38183;DHT22;23991;52.430;10.586;2023-04-25T00:32:03;9.80;70.70
38183;DHT22;23991;52.430;10.586;2023-04-25T00:34:29;9.70;70.70
38183;DHT22;23991;52.430;10.586;2023-04-25T00:36:54;9.80;70.70
38183;DHT22;23991;52.430;10.586;2023-04-25T00:39:20;9.70;70.80
38183;DHT22;23991;52.430;10.586;2023-04-25T00:41:45;9.80;70.90
38183;DHT22;23991;52.430;10.586;2023-04-25T00:44:11;9.70;70.90
38183;DHT22;23991;52.430;10.586;2023-04-25T00:46:38;9.70;70.70
38183;DHT22;23991;52.430;10.586;2023-04-25T00:49:04;9.70;70.50
38183;DHT22;23991;52.430;10.586;2023-04-25T00:51:30;9.70;70.80
38183;DHT22;23991;52.430;10.586;2023-04-25T00:53:58;9.60;70.90
38183;DHT22;23991;52.430;10.586;2023-04-25T00:56:24;9.60;71.00
38183;DHT22;23991;52.430;10.586;2023-04-25T00:58:53;9.60;71.10
38183;DHT22;23991;52.430;10.586;2023-04-25T01:01:20;9.60;71.20
38183;DHT22;23991;52.430;10.586;2023-04-25T01:03:46;9.60;71.10
38183;DHT22;23991;52.430;10.586;2023-04-25T01:06:12;9.60;71.30
38183;DHT22;23991;52.430;10.586;2023-04-25T01:08:39;9.60;71.30
38183;DHT22;23991;52.430;10.586;2023-04-25T01:11:05;9.60;71.20
38183;DHT22;23991;52.430;10.586;2023-04-25T01:13:31;9.40;71.00
38183;DHT22;23991;52.430;10.586;2023-04-25T01:15:58;9.40;71.40
38183;DHT22;23991;52.430;10.586;2023-04-25T01:18:24;9.40;71.60
38183;DHT22;23991;52.430;10.586;2023-04-25T01:20:54;9.40;71.70
38183;DHT22;23991;52.430;10.586;2023-04-25T01:23:20;9.40;71.60
38183;DHT22;23991;52.430;10.586;2023-04-25T01:25:48;9.40;71.60
38183;DHT22;23991;52.430;10.586;2023-04-25T01:28:13;9.40;71.60
38183;DHT22;23991;52.430;10.586;2023-04-25T01:30:39;9.40;71.60
38183;DHT22;23991;52.430;10.586;2023-04-25T01:33:05;9.50;71.50
38183;DHT22;23991;52.430;10.586;2023-04-25T01:35:31;9.40;71.50
38183;DHT22;23991;52.430;10.586;2023-04-25T01:37:57;9.40;71.50
38183;DHT22;23991;52.430;10.586;2023-04-25T01:40:24;9.40;71.80
38183;DHT22;23991;52.430;10.586;2023-04-25T01:42:50;9.40;71.80
38183;DHT22;23991;52.430;10.586;2023-04-25T01:45:16;9.40;71.90
38183;DHT22;23991;52.430;10.586;2023-04-25T01:47:42;9.40;71.90
38183;DHT22;23991;52.430;10.586;2023-04-25T01:50:09;9.40;71.90
38183;DHT22;23991;52.430;10.586;2023-04-25T01:52:36;9.40;72.00
38183;DHT22;23991;52.430;10.586;2023-04-25T01:55:02;9.40;72.00
38183;DHT22;23991;52.430;10.586;2023-04-25T01:57:27;9.30;72.00
38183;DHT22;23991;52.430;10.586;2023-04-25T02:00:01;9.30;72.20
38183;DHT22;23991;52.430;10.586;2023-04-25T02:02:28;9.30;72.30
38183;DHT22;23991;52.430;10.586;2023-04-25T02:04:53;9.30;72.00
38183;DHT22;23991;52.430;10.586;2023-04-25T02:07:22;9.30;72.10
38183;DHT22;23991;52.430;10.586;2023-04-25T02:09:47;9.30;71.90
38183;DHT22;23991;52.430;10.586;2023-04-25T02:12:13;9.30;72.00
38183;DHT22;23991;52.430;10.586;2023-04-25T02:14:38;9.40;72.00
38183;DHT22;23991;52.430;10.586;2023-04-25T02:17:04;9.30;71.90
38183;DHT22;23991;52.430;10.586;2023-04-25T02:19:30;9.40;71.90
38183;DHT22;23991;52.430;10.586;2023-04-25T02:21:56;9.40;71.80
38183;DHT22;23991;52.430;10.586;2023-04-25T02:24:22;9.30;71.90
38183;DHT22;23991;52.430;10.586;2023-04-25T02:26:48;9.30;72.00
38183;DHT22;23991;52.430;10.586;2023-04-25T02:29:15;9.30;72.10
38183;DHT22;23991;52.430;10.586;2023-04-25T02:31:41;9.30;72.10
38183;DHT22;23991;52.430;10.586;2023-04-25T02:34:07;9.20;72.20
38183;DHT22;23991;52.430;10.586;2023-04-25T02:36:32;9.20;72.10
38183;DHT22;23991;52.430;10.586;2023-04-25T02:39:00;9.20;72.20
38183;DHT22;23991;52.430;10.586;2023-04-25T02:41:26;9.20;72.40
38183;DHT22;23991;52.430;10.586;2023-04-25T02:43:52;9.10;72.70
38183;DHT22;23991;52.430;10.586;2023-04-25T02:46:17;9.10;73.00
38183;DHT22;23991;52.430;10.586;2023-04-25T02:48:43;9.10;73.30
38183;DHT22;23991;52.430;10.586;2023-04-25T02:51:09;9.00;73.60
38183;DHT22;23991;52.430;10.586;2023-04-25T02:53:34;9.10;73.70
38183;DHT22;23991;52.430;10.586;2023-04-25T02:56:00;9.10;74.20
38183;DHT22;23991;52.430;10.586;2023-04-25T02:58:25;9.10;74.30
38183;DHT22;23991;52.430;10.586;2023-04-25T03:00:51;9.10;74.60
38183;DHT22;23991;52.430;10.586;2023-04-25T03:03:16;9.10;74.70
38183;DHT22;23991;52.430;10.586;2023-04-25T03:05:43;9.10;74.80
38183;DHT22;23991;52.430;10.586;2023-04-25T03:08:09;9.00;74.90
38183;DHT22;23991;52.430;10.586;2023-04-25T03:10:34;9.10;74.90
38183;DHT22;23991;52.430;10.586;2023-04-25T03:13:00;9.10;75.00
38183;DHT22;23991;52.430;10.586;2023-04-25T03:15:26;9.10;75.30
38183;DHT22;23991;52.430;10.586;2023-04-25T03:17:51;9.10;75.50
38183;DHT22;23991;52.430;10.586;2023-04-25T03:20:17;9.10;75.60
38183;DHT22;23991;52.430;10.586;2023-04-25T03:22:43;9.10;76.00
38183;DHT22;23991;52.430;10.586;2023-04-25T03:25:09;9.10;76.50
38183;DHT22;23991;52.430;10.586;2023-04-25T03:27:35;9.10;77.20
38183;DHT22;23991;52.430;10.586;2023-04-25T03:30:00;9.10;77.50
38183;DHT22;23991;52.430;10.586;2023-04-25T03:32:26;9.00;77.80
38183;DHT22;23991;52.430;10.586;2023-04-25T03:34:51;9.00;78.10
38183;DHT22;23991;52.430;10.586;2023-04-25T03:37:17;9.00;78.00
38183;DHT22;23991;52.430;10.586;2023-04-25T03:39:42;9.00;77.70
38183;DHT22;23991;52.430;10.586;2023-04-25T03:42:08;8.90;77.30
38183;DHT22;23991;52.430;10.586;2023-04-25T03:44:33;9.00;77.00
38183;DHT22;23991;52.430;10.586;2023-04-25T03:46:59;8.90;77.40
38183;DHT22;23991;52.430;10.586;2023-04-25T03:49:25;8.90;76.90
38183;DHT22;23991;52.430;10.586;2023-04-25T03:51:51;8.90;77.00
38183;DHT22;23991;52.430;10.586;2023-04-25T03:54:16;8.80;77.00
38183;DHT22;23991;52.430;10.586;2023-04-25T03:56:42;8.90;76.60
38183;DHT22;23991;52.430;10.586;2023-04-25T03:59:07;8.90;76.20
38183;DHT22;23991;52.430;10.586;2023-04-25T04:01:33;8.90;75.80
38183;DHT22;23991;52.430;10.586;2023-04-25T04:03:58;8.90;75.50
38183;DHT22;23991;52.430;10.586;2023-04-25T04:06:24;8.90;75.00
38183;DHT22;23991;52.430;10.586;2023-04-25T04:08:50;8.80;74.40
38183;DHT22;23991;52.430;10.586;2023-04-25T04:11:16;8.90;74.40
38183;DHT22;23991;52.430;10.586;2023-04-25T04:13:41;8.80;74.40
38183;DHT22;23991;52.430;10.586;2023-04-25T04:16:07;8.80;74.50
38183;DHT22;23991;52.430;10.586;2023-04-25T04:18:32;8.80;74.50
38183;DHT22;23991;52.430;10.586;2023-04-25T04:20:59;8.80;74.30
38183;DHT22;23991;52.430;10.586;2023-04-25T04:23:24;8.80;74.40
38183;DHT22;23991;52.430;10.586;2023-04-25T04:25:52;8.80;74.70
38183;DHT22;23991;52.430;10.586;2023-04-25T04:28:20;8.80;74.50
38183;DHT22;23991;52.430;10.586;2023-04-25T04:30:47;8.80;74.00
38183;DHT22;23991;52.430;10.586;2023-04-25T04:33:13;8.90;73.90
38183;DHT22;23991;52.430;10.586;2023-04-25T04:35:40;9.00;73.90
38183;DHT22;23991;52.430;10.586;2023-04-25T04:38:07;9.10;73.40
38183;DHT22;23991;52.430;10.586;2023-04-25T04:40:32;9.10;73.30
38183;DHT22;23991;52.430;10.586;2023-04-25T04:42:58;9.10;73.10
38183;DHT22;23991;52.430;10.586;2023-04-25T04:45:24;9.20;73.20
38183;DHT22;23991;52.430;10.586;2023-04-25T04:47:49;9.20;73.00
38183;DHT22;23991;52.430;10.586;2023-04-25T04:50:15;9.30;72.90
38183;DHT22;23991;52.430;10.586;2023-04-25T04:52:41;9.30;72.90
38183;DHT22;23991;52.430;10.586;2023-04-25T04:55:07;9.40;72.80
38183;DHT22;23991;52.430;10.586;2023-04-25T04:57:34;9.40;72.50
38183;DHT22;23991;52.430;10.586;2023-04-25T05:00:00;9.40;71.90
38183;DHT22;23991;52.430;10.586;2023-04-25T05:02:26;9.50;71.10
38183;DHT22;23991;52.430;10.586;2023-04-25T05:04:52;9.60;70.30
38183;DHT22;23991;52.430;10.586;2023-04-25T05:07:18;9.60;69.70
38183;DHT22;23991;52.430;10.586;2023-04-25T05:09:44;9.70;69.70
38183;DHT22;23991;52.430;10.586;2023-04-25T05:12:10;9.80;69.30
38183;DHT22;23991;52.430;10.586;2023-04-25T05:14:35;9.80;69.10
38183;DHT22;23991;52.430;10.586;2023-04-25T05:17:01;9.90;68.60
38183;DHT22;23991;52.430;10.586;2023-04-25T05:19:28;9.90;68.40
38183;DHT22;23991;52.430;10.586;2023-04-25T05:21:54;10.00;68.20
38183;DHT22;23991;52.430;10.586;2023-04-25T05:24:20;10.10;67.70
38183;DHT22;23991;52.430;10.586;2023-04-25T05:26:45;10.10;67.00
38183;DHT22;23991;52.430;10.586;2023-04-25T05:29:11;10.30;66.60
38183;DHT22;23991;52.430;10.586;2023-04-25T05:31:36;10.20;66.40
38183;DHT22;23991;52.430;10.586;2023-04-25T05:34:02;10.30;66.00
38183;DHT22;23991;52.430;10.586;2023-04-25T05:36:28;10.50;65.60
38183;DHT22;23991;52.430;10.586;2023-04-25T05:38:53;10.60;65.20
38183;DHT22;23991;52.430;10.586;2023-04-25T05:41:19;10.60;64.70
38183;DHT22;23991;52.430;10.586;2023-04-25T05:43:45;10.60;64.20
38183;DHT22;23991;52.430;10.586;2023-04-25T05:46:12;10.60;63.70
38183;DHT22;23991;52.430;10.586;2023-04-25T05:48:38;10.80;63.70
38183;DHT22;23991;52.430;10.586;2023-04-25T05:51:04;10.90;63.30
38183;DHT22;23991;52.430;10.586;2023-04-25T05:53:30;11.00;63.00
38183;DHT22;23991;52.430;10.586;2023-04-25T05:55:56;11.10;63.40
38183;DHT22;23991;52.430;10.586;2023-04-25T05:58:21;11.30;63.70
38183;DHT22;23991;52.430;10.586;2023-04-25T06:00:47;11.20;63.30
38183;DHT22;23991;52.430;10.586;2023-04-25T06:03:12;11.30;62.90
38183;DHT22;23991;52.430;10.586;2023-04-25T06:05:41;11.30;62.40
38183;DHT22;23991;52.430;10.586;2023-04-25T06:08:07;11.40;62.10
38183;DHT22;23991;52.430;10.586;2023-04-25T06:10:33;11.50;61.60
38183;DHT22;23991;52.430;10.586;2023-04-25T06:12:58;11.60;60.40
38183;DHT22;23991;52.430;10.586;2023-04-25T06:15:24;11.80;60.30
38183;DHT22;23991;52.430;10.586;2023-04-25T06:17:49;11.90;59.70
38183;DHT22;23991;52.430;10.586;2023-04-25T06:20:15;11.90;58.50
38183;DHT22;23991;52.430;10.586;2023-04-25T06:22:40;12.10;57.10
38183;DHT22;23991;52.430;10.586;2023-04-25T06:25:06;12.10;56.60
38183;DHT22;23991;52.430;10.586;2023-04-25T06:27:33;12.30;55.70
38183;DHT22;23991;52.430;10.586;2023-04-25T06:29:58;12.40;55.10
38183;DHT22;23991;52.430;10.586;2023-04-25T06:32:24;12.60;54.60
38183;DHT22;23991;52.430;10.586;2023-04-25T06:34:50;12.60;54.60
38183;DHT22;23991;52.430;10.586;2023-04-25T06:37:15;12.80;52.80
38183;DHT22;23991;52.430;10.586;2023-04-25T06:39:41;12.90;52.60
38183;DHT22;23991;52.430;10.586;2023-04-25T06:42:06;12.90;52.40
38183;DHT22;23991;52.430;10.586;2023-04-25T06:44:32;13.20;52.30
38183;DHT22;23991;52.430;10.586;2023-04-25T06:46:57;13.30;50.70
38183;DHT22;23991;52.430;10.586;2023-04-25T06:49:23;13.70;50.20
38183;DHT22;23991;52.430;10.586;2023-04-25T06:51:48;13.80;48.50
38183;DHT22;23991;52.430;10.586;2023-04-25T06:54:14;14.00;47.30
38183;DHT22;23991;52.430;10.586;2023-04-25T06:56:40;14.00;46.80
38183;DHT22;23991;52.430;10.586;2023-04-25T06:59:06;14.30;44.30
38183;DHT22;23991;52.430;10.586;2023-04-25T07:01:31;14.50;43.00
38183;DHT22;23991;52.430;10.586;2023-04-25T07:03:57;14.80;43.10
38183;DHT22;23991;52.430;10.586;2023-04-25T07:06:22;15.00;42.70
38183;DHT22;23991;52.430;10.586;2023-04-25T07:08:47;15.10;42.30
38183;DHT22;23991;52.430;10.586;2023-04-25T07:11:13;15.40;42.00
38183;DHT22;23991;52.430;10.586;2023-04-25T07:13:38;15.50;42.40
38183;DHT22;23991;52.430;10.586;2023-04-25T07:16:04;15.80;41.00
38183;DHT22;23991;52.430;10.586;2023-04-25T07:18:30;15.70;40.30
38183;DHT22;23991;52.430;10.586;2023-04-25T07:20:55;15.40;39.20
38183;DHT22;23991;52.430;10.586;2023-04-25T07:23:21;15.40;39.70
38183;DHT22;23991;52.430;10.586;2023-04-25T07:25:47;15.30;39.60
38183;DHT22;23991;52.430;10.586;2023-04-25T07:28:12;15.20;39.50
38183;DHT22;23991;52.430;10.586;2023-04-25T07:30:38;15.30;38.90
38183;DHT22;23991;52.430;10.586;2023-04-25T07:33:03;15.20;38.20
38183;DHT22;23991;52.430;10.586;2023-04-25T07:35:29;15.40;37.90
38183;DHT22;23991;52.430;10.586;2023-04-25T07:37:54;15.70;38.70
38183;DHT22;23991;52.430;10.586;2023-04-25T07:40:20;16.00;38.20
38183;DHT22;23991;52.430;10.586;2023-04-25T07:42:46;16.30;38.60
38183;DHT22;23991;52.430;10.586;2023-04-25T07:45:12;16.70;36.60
38183;DHT22;23991;52.430;10.586;2023-04-25T07:47:37;16.70;37.40
38183;DHT22;23991;52.430;10.586;2023-04-25T07:50:04;16.70;36.50
38183;DHT22;23991;52.430;10.586;2023-04-25T07:52:29;17.10;36.10
38183;DHT22;23991;52.430;10.586;2023-04-25T07:54:55;17.00;35.70
38183;DHT22;23991;52.430;10.586;2023-04-25T07:57:20;16.80;36.00
38183;DHT22;23991;52.430;10.586;2023-04-25T07:59:46;16.80;36.10
38183;DHT22;23991;52.430;10.586;2023-04-25T08:02:11;16.70;37.10
38183;DHT22;23991;52.430;10.586;2023-04-25T08:04:37;16.70;36.90
38183;DHT22;23991;52.430;10.586;2023-04-25T08:07:02;16.70;36.70
38183;DHT22;23991;52.430;10.586;2023-04-25T08:09:28;16.90;35.60
38183;DHT22;23991;52.430;10.586;2023-04-25T08:11:54;16.90;36.70
38183;DHT22;23991;52.430;10.586;2023-04-25T08:14:20;17.00;36.40
38183;DHT22;23991;52.430;10.586;2023-04-25T08:16:45;16.80;36.50
38183;DHT22;23991;52.430;10.586;2023-04-25T08:19:11;16.30;37.20
38183;DHT22;23991;52.430;10.586;2023-04-25T08:21:37;16.20;37.40
38183;DHT22;23991;52.430;10.586;2023-04-25T08:24:02;16.30;37.40
38183;DHT22;23991;52.430;10.586;2023-04-25T08:26:28;16.20;37.90
38183;DHT22;23991;52.430;10.586;2023-04-25T08:28:54;16.10;38.30
38183;DHT22;23991;52.430;10.586;2023-04-25T08:31:20;16.00;38.50
38183;DHT22;23991;52.430;10.586;2023-04-25T08:33:46;15.80;39.70
38183;DHT22;23991;52.430;10.586;2023-04-25T08:36:11;15.80;40.40
38183;DHT22;23991;52.430;10.586;2023-04-25T08:38:37;15.80;40.60
38183;DHT22;23991;52.430;10.586;2023-04-25T08:41:03;15.50;40.60
38183;DHT22;23991;52.430;10.586;2023-04-25T08:43:29;15.50;41.20
38183;DHT22;23991;52.430;10.586;2023-04-25T08:45:59;15.50;41.40
38183;DHT22;23991;52.430;10.586;2023-04-25T08:48:27;15.80;40.40
38183;DHT22;23991;52.430;10.586;2023-04-25T08:50:55;15.80;38.70
38183;DHT22;23991;52.430;10.586;2023-04-25T08:53:31;16.20;38.60
38183;DHT22;23991;52.430;10.586;2023-04-25T08:55:59;16.20;38.30
38183;DHT22;23991;52.430;10.586;2023-04-25T08:58:25;16.30;38.20
38183;DHT22;23991;52.430;10.586;2023-04-25T09:00:52;16.40;37.60
38183;DHT22;23991;52.430;10.586;2023-04-25T09:03:18;16.60;36.50
38183;DHT22;23991;52.430;10.586;2023-04-25T09:05:44;17.20;35.20
38183;DHT22;23991;52.430;10.586;2023-04-25T09:08:09;17.90;34.10
38183;DHT22;23991;52.430;10.586;2023-04-25T09:10:35;18.10;32.70
38183;DHT22;23991;52.430;10.586;2023-04-25T09:13:14;18.90;32.80
38183;DHT22;23991;52.430;10.586;2023-04-25T09:18:13;19.50;29.60
38183;DHT22;23991;52.430;10.586;2023-04-25T09:20:43;19.70;30.00
38183;DHT22;23991;52.430;10.586;2023-04-25T09:23:09;19.80;29.40
38183;DHT22;23991;52.430;10.586;2023-04-25T09:25:38;19.40;30.30
38183;DHT22;23991;52.430;10.586;2023-04-25T09:28:11;19.10;30.20
38183;DHT22;23991;52.430;10.586;2023-04-25T09:30:39;19.00;30.50
38183;DHT22;23991;52.430;10.586;2023-04-25T09:33:11;18.70;30.10
38183;DHT22;23991;52.430;10.586;2023-04-25T09:35:42;18.40;31.10
38183;DHT22;23991;52.430;10.586;2023-04-25T09:38:09;18.50;31.30
38183;DHT22;23991;52.430;10.586;2023-04-25T09:40:48;18.30;31.50
38183;DHT22;23991;52.430;10.586;2023-04-25T09:43:23;18.50;30.70
38183;DHT22;23991;52.430;10.586;2023-04-25T09:45:50;18.60;31.20
38183;DHT22;23991;52.430;10.586;2023-04-25T09:48:21;18.40;30.80
38183;DHT22;23991;52.430;10.586;2023-04-25T09:51:06;18.20;30.60
38183;DHT22;23991;52.430;10.586;2023-04-25T09:53:37;17.80;31.60
38183;DHT22;23991;52.430;10.586;2023-04-25T09:56:21;17.80;31.60
38183;DHT22;23991;52.430;10.586;2023-04-25T09:58:48;17.80;31.90
38183;DHT22;23991;52.430;10.586;2023-04-25T10:01:16;17.70;32.30
38183;DHT22;23991;52.430;10.586;2023-04-25T10:03:43;17.40;32.50
38183;DHT22;23991;52.430;10.586;2023-04-25T10:06:18;17.40;32.80
38183;DHT22;23991;52.430;10.586;2023-04-25T10:08:44;17.00;33.30
38183;DHT22;23991;52.430;10.586;2023-04-25T10:11:11;17.10;33.60
38183;DHT22;23991;52.430;10.586;2023-04-25T10:13:40;17.00;33.60
38183;DHT22;23991;52.430;10.586;2023-04-25T10:16:05;17.00;33.60
38183;DHT22;23991;52.430;10.586;2023-04-25T10:18:32;17.10;33.30
38183;DHT22;23991;52.430;10.586;2023-04-25T10:21:03;17.00;32.90
38183;DHT22;23991;52.430;10.586;2023-04-25T10:23:31;17.10;33.70
38183;DHT22;23991;52.430;10.586;2023-04-25T10:26:14;17.40;34.10
38183;DHT22;23991;52.430;10.586;2023-04-25T10:29:00;18.00;32.60
38183;DHT22;23991;52.430;10.586;2023-04-25T10:31:27;18.60;31.80
38183;DHT22;23991;52.430;10.586;2023-04-25T10:33:54;19.10;30.20
38183;DHT22;23991;52.430;10.586;2023-04-25T10:36:21;19.70;27.80
38183;DHT22;23991;52.430;10.586;2023-04-25T10:38:49;20.10;27.20
38183;DHT22;23991;52.430;10.586;2023-04-25T10:41:20;20.20;27.00
38183;DHT22;23991;52.430;10.586;2023-04-25T10:43:47;20.70;27.10
38183;DHT22;23991;52.430;10.586;2023-04-25T10:53:14;20.20;28.10
38183;DHT22;23991;52.430;10.586;2023-04-25T10:59:19;19.40;28.60
38183;DHT22;23991;52.430;10.586;2023-04-25T11:01:51;19.10;29.30
38183;DHT22;23991;52.430;10.586;2023-04-25T11:04:31;19.00;30.10
38183;DHT22;23991;52.430;10.586;2023-04-25T11:07:13;18.80;30.20
38183;DHT22;23991;52.430;10.586;2023-04-25T11:09:42;18.80;30.80
38183;DHT22;23991;52.430;10.586;2023-04-25T11:12:09;18.80;30.60
38183;DHT22;23991;52.430;10.586;2023-04-25T11:14:35;18.70;30.30
38183;DHT22;23991;52.430;10.586;2023-04-25T11:17:01;18.40;30.40
38183;DHT22;23991;52.430;10.586;2023-04-25T11:19:28;18.40;30.70
38183;DHT22;23991;52.430;10.586;2023-04-25T11:25:29;18.50;31.00
38183;DHT22;23991;52.430;10.586;2023-04-25T11:28:06;18.20;31.20
38183;DHT22;23991;52.430;10.586;2023-04-25T11:30:35;17.80;31.90
38183;DHT22;23991;52.430;10.586;2023-04-25T11:33:14;17.70;32.40
38183;DHT22;23991;52.430;10.586;2023-04-25T11:35:40;17.40;32.80
38183;DHT22;23991;52.430;10.586;2023-04-25T11:38:10;17.30;33.60
38183;DHT22;23991;52.430;10.586;2023-04-25T11:40:36;17.20;34.10
38183;DHT22;23991;52.430;10.586;2023-04-25T11:43:01;17.30;34.50
38183;DHT22;23991;52.430;10.586;2023-04-25T11:51:47;17.20;35.50
38183;DHT22;23991;52.430;10.586;2023-04-25T11:54:14;17.30;35.70
38183;DHT22;23991;52.430;10.586;2023-04-25T11:56:44;17.10;35.80
38183;DHT22;23991;52.430;10.586;2023-04-25T11:59:10;17.30;35.80
38183;DHT22;23991;52.430;10.586;2023-04-25T12:01:39;17.60;35.50
38183;DHT22;23991;52.430;10.586;2023-04-25T12:06:41;18.30;34.30
38183;DHT22;23991;52.430;10.586;2023-04-25T12:09:11;18.80;32.90
38183;DHT22;23991;52.430;10.586;2023-04-25T12:11:57;19.20;32.20
38183;DHT22;23991;52.430;10.586;2023-04-25T12:14:26;19.90;30.80
38183;DHT22;23991;52.430;10.586;2023-04-25T12:16:56;20.40;30.00
38183;DHT22;23991;52.430;10.586;2023-04-25T12:19:23;20.30;28.10
38183;DHT22;23991;52.430;10.586;2023-04-25T12:21:49;20.80;28.60
38183;DHT22;23991;52.430;10.586;2023-04-25T12:24:23;21.20;28.00
38183;DHT22;23991;52.430;10.586;2023-04-25T12:27:02;21.10;27.70
38183;DHT22;23991;52.430;10.586;2023-04-25T12:29:30;20.90;27.80
38183;DHT22;23991;52.430;10.586;2023-04-25T12:31:57;20.80;28.60
38183;DHT22;23991;52.430;10.586;2023-04-25T12:34:23;21.30;28.00
38183;DHT22;23991;52.430;10.586;2023-04-25T12:36:49;21.30;27.60
38183;DHT22;23991;52.430;10.586;2023-04-25T12:39:22;21.20;27.70
38183;DHT22;23991;52.430;10.586;2023-04-25T12:41:49;20.80;27.90
38183;DHT22;23991;52.430;10.586;2023-04-25T12:44:15;20.70;28.30
38183;DHT22;23991;52.430;10.586;2023-04-25T12:46:41;20.60;29.10
38183;DHT22;23991;52.430;10.586;2023-04-25T12:49:07;20.80;28.60
38183;DHT22;23991;52.430;10.586;2023-04-25T12:51:36;20.80;28.90
38183;DHT22;23991;52.430;10.586;2023-04-25T12:54:04;21.20;28.20
38183;DHT22;23991;52.430;10.586;2023-04-25T12:56:30;21.40;28.30
38183;DHT22;23991;52.430;10.586;2023-04-25T12:58:56;21.90;27.90
38183;DHT22;23991;52.430;10.586;2023-04-25T13:01:23;22.50;26.80
38183;DHT22;23991;52.430;10.586;2023-04-25T13:03:49;23.30;26.50
38183;DHT22;23991;52.430;10.586;2023-04-25T13:06:15;23.30;25.70
38183;DHT22;23991;52.430;10.586;2023-04-25T13:08:41;23.30;25.00
38183;DHT22;23991;52.430;10.586;2023-04-25T13:11:07;23.40;24.40
38183;DHT22;23991;52.430;10.586;2023-04-25T13:13:33;23.80;24.30
38183;DHT22;23991;52.430;10.586;2023-04-25T13:16:03;23.80;24.00
38183;DHT22;23991;52.430;10.586;2023-04-25T13:18:30;23.50;24.30
38183;DHT22;23991;52.430;10.586;2023-04-25T13:20:56;22.90;24.00
38183;DHT22;23991;52.430;10.586;2023-04-25T13:23:25;22.70;24.90
38183;DHT22;23991;52.430;10.586;2023-04-25T13:25:51;22.20;25.10
38183;DHT22;23991;52.430;10.586;2023-04-25T13:28:16;21.50;25.80
38183;DHT22;23991;52.430;10.586;2023-04-25T13:30:42;21.10;26.40
38183;DHT22;23991;52.430;10.586;2023-04-25T13:33:08;20.90;27.20
38183;DHT22;23991;52.430;10.586;2023-04-25T13:35:35;20.50;27.80
38183;DHT22;23991;52.430;10.586;2023-04-25T13:38:01;20.20;28.50
38183;DHT22;23991;52.430;10.586;2023-04-25T13:40:26;20.20;28.90
38183;DHT22;23991;52.430;10.586;2023-04-25T13:42:52;20.10;29.40
38183;DHT22;23991;52.430;10.586;2023-04-25T13:45:18;20.00;29.80
38183;DHT22;23991;52.430;10.586;2023-04-25T13:47:44;19.90;29.30
38183;DHT22;23991;52.430;10.586;2023-04-25T13:50:19;19.90;29.20
38183;DHT22;23991;52.430;10.586;2023-04-25T13:53:08;20.20;29.30
38183;DHT22;23991;52.430;10.586;2023-04-25T13:55:44;20.60;28.60
38183;DHT22;23991;52.430;10.586;2023-04-25T13:58:10;21.30;27.90
38183;DHT22;23991;52.430;10.586;2023-04-25T14:00:37;21.30;27.40
38183;DHT22;23991;52.430;10.586;2023-04-25T14:03:08;21.40;27.30
38183;DHT22;23991;52.430;10.586;2023-04-25T14:05:37;21.40;26.70
38183;DHT22;23991;52.430;10.586;2023-04-25T14:08:07;21.50;26.60
38183;DHT22;23991;52.430;10.586;2023-04-25T14:10:43;21.70;26.70
38183;DHT22;23991;52.430;10.586;2023-04-25T14:13:11;21.70;26.10
38183;DHT22;23991;52.430;10.586;2023-04-25T14:15:39;21.50;27.00
38183;DHT22;23991;52.430;10.586;2023-04-25T14:21:24;21.50;26.00
38183;DHT22;23991;52.430;10.586;2023-04-25T14:24:04;21.20;26.70
38183;DHT22;23991;52.430;10.586;2023-04-25T14:33:28;19.50;32.30
38183;DHT22;23991;52.430;10.586;2023-04-25T14:35:53;18.50;33.90
38183;DHT22;23991;52.430;10.586;2023-04-25T14:38:19;18.40;35.30
38183;DHT22;23991;52.430;10.586;2023-04-25T14:40:48;18.30;34.90
38183;DHT22;23991;52.430;10.586;2023-04-25T14:43:14;18.30;35.40
38183;DHT22;23991;52.430;10.586;2023-04-25T14:45:40;18.30;35.20
38183;DHT22;23991;52.430;10.586;2023-04-25T14:48:05;18.10;35.20
38183;DHT22;23991;52.430;10.586;2023-04-25T14:50:42;17.80;35.30
38183;DHT22;23991;52.430;10.586;2023-04-25T14:53:07;17.70;36.00
38183;DHT22;23991;52.430;10.586;2023-04-25T14:55:42;18.00;36.40
38183;DHT22;23991;52.430;10.586;2023-04-25T14:58:08;18.50;34.90
38183;DHT22;23991;52.430;10.586;2023-04-25T15:00:34;18.80;34.20
38183;DHT22;23991;52.430;10.586;2023-04-25T15:03:02;19.30;32.40
38183;DHT22;23991;52.430;10.586;2023-04-25T15:05:36;19.60;30.70
38183;DHT22;23991;52.430;10.586;2023-04-25T15:08:02;19.80;30.50
38183;DHT22;23991;52.430;10.586;2023-04-25T15:10:28;19.60;30.20
38183;DHT22;23991;52.430;10.586;2023-04-25T15:12:56;19.30;30.20
38183;DHT22;23991;52.430;10.586;2023-04-25T15:15:25;19.00;30.50
38183;DHT22;23991;52.430;10.586;2023-04-25T15:17:54;18.80;30.80
38183;DHT22;23991;52.430;10.586;2023-04-25T15:20:20;18.80;31.20
38183;DHT22;23991;52.430;10.586;2023-04-25T15:22:46;19.00;31.70
38183;DHT22;23991;52.430;10.586;2023-04-25T15:25:15;19.10;31.40
38183;DHT22;23991;52.430;10.586;2023-04-25T15:27:44;19.30;31.60
38183;DHT22;23991;52.430;10.586;2023-04-25T15:30:15;19.50;30.90
38183;DHT22;23991;52.430;10.586;2023-04-25T15:32:50;19.30;31.10
38183;DHT22;23991;52.430;10.586;2023-04-25T15:35:25;19.60;31.50
38183;DHT22;23991;52.430;10.586;2023-04-25T15:37:50;19.80;31.50
38183;DHT22;23991;52.430;10.586;2023-04-25T15:40:19;19.80;30.90
38183;DHT22;23991;52.430;10.586;2023-04-25T15:42:46;19.80;31.60
38183;DHT22;23991;52.430;10.586;2023-04-25T15:45:12;19.90;31.60
38183;DHT22;23991;52.430;10.586;2023-04-25T15:47:41;19.80;32.20
38183;DHT22;23991;52.430;10.586;2023-04-25T15:50:08;19.90;31.10
38183;DHT22;23991;52.430;10.586;2023-04-25T15:52:41;19.70;31.10
38183;DHT22;23991;52.430;10.586;2023-04-25T15:55:10;19.40;31.30